Terminal Aerodrome Forecast
Issued by NWS Cleveland, OH

Home | Current Version | Previous Version | Graphics & Text | Print | Product List | Glossary On
Versions: 1 2 3 4 5 6 7 8 9 10 11 12 13 14 15 16 17 18
485
FTUS41 KCLE 210523
TAFMFD
TAF
KMFD 210523Z 2106/2206 15011KT 6SM -SHRA VCTS BKN045CB
      TEMPO 2106/2110 VRB20G35KT 3SM -TSRA BKN025CB
     FM211000 15011KT 6SM -SHRA BR BKN025 OVC100
     FM211500 19014G20KT P6SM VCSH BKN025
     FM212200 21014G20KT P6SM VCTS SCT025 BKN050CB
     FM220000 25014KT P6SM BKN035=

USA.gov is the U.S. government's official web portal to all federal, state and local government web resources and services.